sensor_id;sensor_type;location;lat;lon;timestamp;P1;durP1;ratioP1;P2;durP2;ratioP2
16593;SDS011;8410;52.532;13.336;2022-11-15T00:01:08;49.27;;;40.00;;
16593;SDS011;8410;52.532;13.336;2022-11-15T00:03:36;44.93;;;40.17;;
16593;SDS011;8410;52.532;13.336;2022-11-15T00:06:05;44.90;;;40.13;;
16593;SDS011;8410;52.532;13.336;2022-11-15T00:08:33;46.00;;;39.67;;
16593;SDS011;8410;52.532;13.336;2022-11-15T00:11:01;49.33;;;42.60;;
16593;SDS011;8410;52.532;13.336;2022-11-15T00:13:29;46.53;;;41.50;;
16593;SDS011;8410;52.532;13.336;2022-11-15T00:15:58;46.43;;;41.10;;
16593;SDS011;8410;52.532;13.336;2022-11-15T00:18:26;45.47;;;37.80;;
16593;SDS011;8410;52.532;13.336;2022-11-15T00:20:54;41.73;;;36.40;;
16593;SDS011;8410;52.532;13.336;2022-11-15T00:23:24;41.77;;;37.37;;
16593;SDS011;8410;52.532;13.336;2022-11-15T00:25:57;47.33;;;42.23;;
16593;SDS011;8410;52.532;13.336;2022-11-15T00:28:25;43.13;;;38.40;;
16593;SDS011;8410;52.532;13.336;2022-11-15T00:30:53;46.83;;;41.07;;
16593;SDS011;8410;52.532;13.336;2022-11-15T00:33:21;47.43;;;41.20;;
16593;SDS011;8410;52.532;13.336;2022-11-15T00:35:48;44.53;;;39.83;;
16593;SDS011;8410;52.532;13.336;2022-11-15T00:38:16;45.73;;;40.17;;
16593;SDS011;8410;52.532;13.336;2022-11-15T00:40:45;46.67;;;41.30;;
16593;SDS011;8410;52.532;13.336;2022-11-15T00:43:12;45.87;;;41.03;;
16593;SDS011;8410;52.532;13.336;2022-11-15T00:45:40;45.63;;;40.80;;
16593;SDS011;8410;52.532;13.336;2022-11-15T00:48:08;44.87;;;40.07;;
16593;SDS011;8410;52.532;13.336;2022-11-15T00:50:36;46.23;;;41.40;;
16593;SDS011;8410;52.532;13.336;2022-11-15T00:53:04;46.90;;;41.43;;
16593;SDS011;8410;52.532;13.336;2022-11-15T00:55:31;45.90;;;40.97;;
16593;SDS011;8410;52.532;13.336;2022-11-15T00:58:00;46.50;;;41.40;;
16593;SDS011;8410;52.532;13.336;2022-11-15T01:00:28;46.50;;;41.40;;
16593;SDS011;8410;52.532;13.336;2022-11-15T01:02:55;44.40;;;39.67;;
16593;SDS011;8410;52.532;13.336;2022-11-15T01:05:23;43.93;;;39.23;;
16593;SDS011;8410;52.532;13.336;2022-11-15T01:07:51;49.13;;;42.57;;
16593;SDS011;8410;52.532;13.336;2022-11-15T01:10:19;46.00;;;41.03;;
16593;SDS011;8410;52.532;13.336;2022-11-15T01:12:46;45.57;;;40.63;;
16593;SDS011;8410;52.532;13.336;2022-11-15T01:15:15;48.67;;;41.47;;
16593;SDS011;8410;52.532;13.336;2022-11-15T01:17:43;47.17;;;42.20;;
16593;SDS011;8410;52.532;13.336;2022-11-15T01:20:11;47.67;;;42.37;;
16593;SDS011;8410;52.532;13.336;2022-11-15T01:22:38;48.67;;;42.60;;
16593;SDS011;8410;52.532;13.336;2022-11-15T01:25:06;46.17;;;40.17;;
16593;SDS011;8410;52.532;13.336;2022-11-15T01:27:33;47.13;;;41.30;;
16593;SDS011;8410;52.532;13.336;2022-11-15T01:30:01;47.70;;;42.63;;
16593;SDS011;8410;52.532;13.336;2022-11-15T01:32:30;44.80;;;39.47;;
16593;SDS011;8410;52.532;13.336;2022-11-15T01:34:57;45.37;;;40.63;;
16593;SDS011;8410;52.532;13.336;2022-11-15T01:37:25;45.53;;;40.63;;
16593;SDS011;8410;52.532;13.336;2022-11-15T01:39:52;47.13;;;42.10;;
16593;SDS011;8410;52.532;13.336;2022-11-15T01:42:19;49.93;;;43.10;;
16593;SDS011;8410;52.532;13.336;2022-11-15T01:44:48;48.30;;;41.77;;
16593;SDS011;8410;52.532;13.336;2022-11-15T01:47:17;46.43;;;41.53;;
16593;SDS011;8410;52.532;13.336;2022-11-15T01:49:51;44.53;;;39.57;;
16593;SDS011;8410;52.532;13.336;2022-11-15T01:52:23;46.30;;;41.60;;
16593;SDS011;8410;52.532;13.336;2022-11-15T01:54:53;48.07;;;42.77;;
16593;SDS011;8410;52.532;13.336;2022-11-15T01:57:23;47.93;;;41.10;;
16593;SDS011;8410;52.532;13.336;2022-11-15T01:59:51;46.53;;;41.50;;
16593;SDS011;8410;52.532;13.336;2022-11-15T02:02:18;43.37;;;38.77;;
16593;SDS011;8410;52.532;13.336;2022-11-15T02:04:46;47.13;;;42.03;;
16593;SDS011;8410;52.532;13.336;2022-11-15T02:07:16;46.60;;;41.63;;
16593;SDS011;8410;52.532;13.336;2022-11-15T02:09:45;45.53;;;40.70;;
16593;SDS011;8410;52.532;13.336;2022-11-15T02:12:13;44.43;;;39.63;;
16593;SDS011;8410;52.532;13.336;2022-11-15T02:14:44;47.20;;;42.03;;
16593;SDS011;8410;52.532;13.336;2022-11-15T02:17:20;46.63;;;41.63;;
16593;SDS011;8410;52.532;13.336;2022-11-15T02:20:13;45.90;;;41.10;;
16593;SDS011;8410;52.532;13.336;2022-11-15T02:23:02;47.13;;;41.93;;
16593;SDS011;8410;52.532;13.336;2022-11-15T02:25:43;45.50;;;40.47;;
16593;SDS011;8410;52.532;13.336;2022-11-15T02:28:34;47.63;;;40.70;;
16593;SDS011;8410;52.532;13.336;2022-11-15T02:31:14;45.50;;;40.73;;
16593;SDS011;8410;52.532;13.336;2022-11-15T02:33:53;44.67;;;39.87;;
16593;SDS011;8410;52.532;13.336;2022-11-15T02:36:29;46.20;;;41.20;;
16593;SDS011;8410;52.532;13.336;2022-11-15T02:39:03;46.63;;;41.63;;
16593;SDS011;8410;52.532;13.336;2022-11-15T02:41:39;48.37;;;40.93;;
16593;SDS011;8410;52.532;13.336;2022-11-15T02:44:13;45.53;;;40.50;;
16593;SDS011;8410;52.532;13.336;2022-11-15T02:46:49;48.47;;;43.20;;
16593;SDS011;8410;52.532;13.336;2022-11-15T02:49:38;47.70;;;40.63;;
16593;SDS011;8410;52.532;13.336;2022-11-15T02:52:07;45.93;;;40.90;;
16593;SDS011;8410;52.532;13.336;2022-11-15T02:54:35;43.50;;;38.90;;
16593;SDS011;8410;52.532;13.336;2022-11-15T02:57:03;45.03;;;40.03;;
16593;SDS011;8410;52.532;13.336;2022-11-15T03:02:30;44.77;;;39.90;;
16593;SDS011;8410;52.532;13.336;2022-11-15T03:05:13;46.43;;;41.33;;
16593;SDS011;8410;52.532;13.336;2022-11-15T03:07:48;45.20;;;40.33;;
16593;SDS011;8410;52.532;13.336;2022-11-15T03:10:30;45.97;;;41.00;;
16593;SDS011;8410;52.532;13.336;2022-11-15T03:13:05;47.43;;;42.30;;
16593;SDS011;8410;52.532;13.336;2022-11-15T03:15:40;48.27;;;43.07;;
16593;SDS011;8410;52.532;13.336;2022-11-15T03:18:17;46.30;;;40.47;;
16593;SDS011;8410;52.532;13.336;2022-11-15T03:20:48;45.53;;;40.67;;
16593;SDS011;8410;52.532;13.336;2022-11-15T03:23:17;46.77;;;40.93;;
16593;SDS011;8410;52.532;13.336;2022-11-15T03:25:45;43.47;;;38.87;;
16593;SDS011;8410;52.532;13.336;2022-11-15T03:28:16;42.57;;;37.30;;
16593;SDS011;8410;52.532;13.336;2022-11-15T03:30:49;46.53;;;39.97;;
16593;SDS011;8410;52.532;13.336;2022-11-15T03:33:20;44.57;;;39.97;;
16593;SDS011;8410;52.532;13.336;2022-11-15T03:35:49;44.20;;;39.40;;
16593;SDS011;8410;52.532;13.336;2022-11-15T03:38:19;42.60;;;38.10;;
16593;SDS011;8410;52.532;13.336;2022-11-15T03:40:58;45.53;;;40.70;;
16593;SDS011;8410;52.532;13.336;2022-11-15T03:43:29;50.00;;;44.43;;
16593;SDS011;8410;52.532;13.336;2022-11-15T03:46:00;47.87;;;42.87;;
16593;SDS011;8410;52.532;13.336;2022-11-15T03:48:35;48.13;;;39.67;;
16593;SDS011;8410;52.532;13.336;2022-11-15T03:51:07;48.17;;;42.23;;
16593;SDS011;8410;52.532;13.336;2022-11-15T03:53:35;49.33;;;42.20;;
16593;SDS011;8410;52.532;13.336;2022-11-15T03:56:02;43.17;;;37.93;;
16593;SDS011;8410;52.532;13.336;2022-11-15T03:58:30;45.33;;;40.40;;
16593;SDS011;8410;52.532;13.336;2022-11-15T04:00:57;46.50;;;41.60;;
16593;SDS011;8410;52.532;13.336;2022-11-15T04:03:25;45.57;;;39.43;;
16593;SDS011;8410;52.532;13.336;2022-11-15T04:05:54;41.40;;;37.07;;
16593;SDS011;8410;52.532;13.336;2022-11-15T04:08:22;46.43;;;40.47;;
16593;SDS011;8410;52.532;13.336;2022-11-15T04:10:49;43.90;;;36.40;;
16593;SDS011;8410;52.532;13.336;2022-11-15T04:13:17;46.07;;;40.60;;
16593;SDS011;8410;52.532;13.336;2022-11-15T04:15:44;42.17;;;37.47;;
16593;SDS011;8410;52.532;13.336;2022-11-15T04:18:12;45.43;;;40.63;;
16593;SDS011;8410;52.532;13.336;2022-11-15T04:20:39;47.00;;;41.00;;
16593;SDS011;8410;52.532;13.336;2022-11-15T04:23:25;46.67;;;41.60;;
16593;SDS011;8410;52.532;13.336;2022-11-15T04:26:11;46.13;;;41.27;;
16593;SDS011;8410;52.532;13.336;2022-11-15T04:28:41;46.97;;;40.77;;
16593;SDS011;8410;52.532;13.336;2022-11-15T04:31:23;44.50;;;39.70;;
16593;SDS011;8410;52.532;13.336;2022-11-15T04:33:50;44.80;;;40.03;;
16593;SDS011;8410;52.532;13.336;2022-11-15T04:36:18;42.50;;;38.13;;
16593;SDS011;8410;52.532;13.336;2022-11-15T04:39:04;45.77;;;40.77;;
16593;SDS011;8410;52.532;13.336;2022-11-15T04:41:32;46.53;;;40.47;;
16593;SDS011;8410;52.532;13.336;2022-11-15T04:44:00;45.60;;;39.90;;
16593;SDS011;8410;52.532;13.336;2022-11-15T04:46:27;42.50;;;36.23;;
16593;SDS011;8410;52.532;13.336;2022-11-15T04:48:55;42.43;;;37.70;;
16593;SDS011;8410;52.532;13.336;2022-11-15T04:51:24;46.23;;;40.00;;
16593;SDS011;8410;52.532;13.336;2022-11-15T04:53:52;44.23;;;39.43;;
16593;SDS011;8410;52.532;13.336;2022-11-15T04:56:21;44.40;;;39.67;;
16593;SDS011;8410;52.532;13.336;2022-11-15T04:58:48;44.37;;;39.57;;
16593;SDS011;8410;52.532;13.336;2022-11-15T05:01:16;43.27;;;38.70;;
16593;SDS011;8410;52.532;13.336;2022-11-15T05:03:44;45.87;;;39.73;;
16593;SDS011;8410;52.532;13.336;2022-11-15T05:06:29;42.57;;;37.93;;
16593;SDS011;8410;52.532;13.336;2022-11-15T05:08:57;44.87;;;39.63;;
16593;SDS011;8410;52.532;13.336;2022-11-15T05:11:26;46.03;;;39.40;;
16593;SDS011;8410;52.532;13.336;2022-11-15T05:13:54;45.40;;;39.60;;
16593;SDS011;8410;52.532;13.336;2022-11-15T05:16:22;45.43;;;40.50;;
16593;SDS011;8410;52.532;13.336;2022-11-15T05:18:50;45.90;;;39.93;;
16593;SDS011;8410;52.532;13.336;2022-11-15T05:21:19;43.67;;;39.03;;
16593;SDS011;8410;52.532;13.336;2022-11-15T05:23:47;46.47;;;38.80;;
16593;SDS011;8410;52.532;13.336;2022-11-15T05:26:15;44.10;;;39.20;;
16593;SDS011;8410;52.532;13.336;2022-11-15T05:28:45;45.83;;;39.43;;
16593;SDS011;8410;52.532;13.336;2022-11-15T05:31:13;43.90;;;39.17;;
16593;SDS011;8410;52.532;13.336;2022-11-15T05:33:42;43.17;;;38.77;;
16593;SDS011;8410;52.532;13.336;2022-11-15T05:36:12;46.07;;;38.47;;
16593;SDS011;8410;52.532;13.336;2022-11-15T05:38:44;45.57;;;39.03;;
16593;SDS011;8410;52.532;13.336;2022-11-15T05:41:12;47.03;;;39.73;;
16593;SDS011;8410;52.532;13.336;2022-11-15T05:43:41;45.27;;;37.73;;
16593;SDS011;8410;52.532;13.336;2022-11-15T05:46:11;42.97;;;38.27;;
16593;SDS011;8410;52.532;13.336;2022-11-15T05:48:41;43.67;;;37.50;;
16593;SDS011;8410;52.532;13.336;2022-11-15T05:51:12;44.73;;;36.73;;
16593;SDS011;8410;52.532;13.336;2022-11-15T05:53:42;42.77;;;38.07;;
16593;SDS011;8410;52.532;13.336;2022-11-15T05:56:10;43.07;;;38.47;;
16593;SDS011;8410;52.532;13.336;2022-11-15T05:58:38;44.80;;;39.87;;
16593;SDS011;8410;52.532;13.336;2022-11-15T06:01:06;43.70;;;38.73;;
16593;SDS011;8410;52.532;13.336;2022-11-15T06:03:35;43.27;;;36.30;;
16593;SDS011;8410;52.532;13.336;2022-11-15T06:06:02;44.97;;;39.93;;
16593;SDS011;8410;52.532;13.336;2022-11-15T06:08:30;42.60;;;37.53;;
16593;SDS011;8410;52.532;13.336;2022-11-15T06:11:02;43.33;;;38.57;;
16593;SDS011;8410;52.532;13.336;2022-11-15T06:13:30;42.83;;;36.20;;
16593;SDS011;8410;52.532;13.336;2022-11-15T06:15:59;41.00;;;36.57;;
16593;SDS011;8410;52.532;13.336;2022-11-15T06:18:26;42.30;;;36.33;;
16593;SDS011;8410;52.532;13.336;2022-11-15T06:20:57;42.93;;;38.23;;
16593;SDS011;8410;52.532;13.336;2022-11-15T06:23:26;44.10;;;38.33;;
16593;SDS011;8410;52.532;13.336;2022-11-15T06:25:57;42.50;;;36.53;;
16593;SDS011;8410;52.532;13.336;2022-11-15T06:28:25;45.57;;;40.07;;
16593;SDS011;8410;52.532;13.336;2022-11-15T06:30:55;44.87;;;39.60;;
16593;SDS011;8410;52.532;13.336;2022-11-15T06:33:23;46.23;;;40.20;;
16593;SDS011;8410;52.532;13.336;2022-11-15T06:35:50;44.27;;;39.20;;
16593;SDS011;8410;52.532;13.336;2022-11-15T06:38:19;49.83;;;40.23;;
16593;SDS011;8410;52.532;13.336;2022-11-15T06:40:47;41.37;;;36.80;;
16593;SDS011;8410;52.532;13.336;2022-11-15T06:43:14;46.60;;;41.57;;
16593;SDS011;8410;52.532;13.336;2022-11-15T06:45:42;43.43;;;36.73;;
16593;SDS011;8410;52.532;13.336;2022-11-15T06:48:10;46.87;;;39.33;;
16593;SDS011;8410;52.532;13.336;2022-11-15T06:50:37;46.80;;;39.87;;
16593;SDS011;8410;52.532;13.336;2022-11-15T06:53:05;46.73;;;40.27;;
16593;SDS011;8410;52.532;13.336;2022-11-15T06:55:33;48.20;;;40.47;;
16593;SDS011;8410;52.532;13.336;2022-11-15T06:58:01;43.97;;;35.47;;
16593;SDS011;8410;52.532;13.336;2022-11-15T07:00:28;49.23;;;39.93;;
16593;SDS011;8410;52.532;13.336;2022-11-15T07:02:59;44.87;;;37.93;;
16593;SDS011;8410;52.532;13.336;2022-11-15T07:05:27;45.37;;;39.20;;
16593;SDS011;8410;52.532;13.336;2022-11-15T07:07:54;44.30;;;39.13;;
16593;SDS011;8410;52.532;13.336;2022-11-15T07:10:23;46.40;;;40.07;;
16593;SDS011;8410;52.532;13.336;2022-11-15T07:12:53;45.83;;;38.97;;
16593;SDS011;8410;52.532;13.336;2022-11-15T07:15:22;43.90;;;38.33;;
16593;SDS011;8410;52.532;13.336;2022-11-15T07:17:51;47.60;;;38.93;;
16593;SDS011;8410;52.532;13.336;2022-11-15T07:20:18;46.27;;;40.27;;
16593;SDS011;8410;52.532;13.336;2022-11-15T07:22:46;43.17;;;38.47;;
16593;SDS011;8410;52.532;13.336;2022-11-15T07:25:13;46.13;;;40.73;;
16593;SDS011;8410;52.532;13.336;2022-11-15T07:27:41;41.20;;;36.63;;
16593;SDS011;8410;52.532;13.336;2022-11-15T07:30:11;43.80;;;39.10;;
16593;SDS011;8410;52.532;13.336;2022-11-15T07:32:40;39.60;;;34.57;;
16593;SDS011;8410;52.532;13.336;2022-11-15T07:35:08;41.63;;;35.50;;
16593;SDS011;8410;52.532;13.336;2022-11-15T07:37:35;43.00;;;35.27;;
16593;SDS011;8410;52.532;13.336;2022-11-15T07:40:03;40.57;;;34.47;;
16593;SDS011;8410;52.532;13.336;2022-11-15T07:42:31;41.17;;;35.30;;
16593;SDS011;8410;52.532;13.336;2022-11-15T07:45:17;44.83;;;38.17;;
16593;SDS011;8410;52.532;13.336;2022-11-15T07:47:45;45.77;;;38.40;;
16593;SDS011;8410;52.532;13.336;2022-11-15T07:50:13;42.77;;;33.03;;
16593;SDS011;8410;52.532;13.336;2022-11-15T07:52:40;42.33;;;36.30;;
16593;SDS011;8410;52.532;13.336;2022-11-15T07:55:08;44.77;;;35.60;;
16593;SDS011;8410;52.532;13.336;2022-11-15T07:57:36;46.07;;;34.73;;
16593;SDS011;8410;52.532;13.336;2022-11-15T08:00:04;39.43;;;34.87;;
16593;SDS011;8410;52.532;13.336;2022-11-15T08:02:34;43.13;;;37.17;;
16593;SDS011;8410;52.532;13.336;2022-11-15T08:05:02;37.90;;;33.73;;
16593;SDS011;8410;52.532;13.336;2022-11-15T08:07:30;41.63;;;36.40;;
16593;SDS011;8410;52.532;13.336;2022-11-15T08:09:58;40.17;;;35.87;;
16593;SDS011;8410;52.532;13.336;2022-11-15T08:12:27;44.13;;;36.83;;
16593;SDS011;8410;52.532;13.336;2022-11-15T08:14:55;40.80;;;36.37;;
16593;SDS011;8410;52.532;13.336;2022-11-15T08:17:23;45.17;;;35.97;;
16593;SDS011;8410;52.532;13.336;2022-11-15T08:19:52;40.60;;;36.20;;
16593;SDS011;8410;52.532;13.336;2022-11-15T08:22:20;39.57;;;35.23;;
16593;SDS011;8410;52.532;13.336;2022-11-15T08:24:48;39.93;;;35.57;;
16593;SDS011;8410;52.532;13.336;2022-11-15T08:27:15;41.33;;;36.97;;
16593;SDS011;8410;52.532;13.336;2022-11-15T08:29:43;41.47;;;36.00;;
16593;SDS011;8410;52.532;13.336;2022-11-15T08:32:11;38.23;;;34.07;;
16593;SDS011;8410;52.532;13.336;2022-11-15T08:34:39;38.53;;;34.57;;
16593;SDS011;8410;52.532;13.336;2022-11-15T08:37:07;50.47;;;34.13;;
16593;SDS011;8410;52.532;13.336;2022-11-15T08:39:35;39.13;;;34.87;;
16593;SDS011;8410;52.532;13.336;2022-11-15T08:42:02;37.53;;;33.57;;
16593;SDS011;8410;52.532;13.336;2022-11-15T08:44:30;39.70;;;34.77;;
16593;SDS011;8410;52.532;13.336;2022-11-15T08:46:57;39.57;;;35.30;;
16593;SDS011;8410;52.532;13.336;2022-11-15T08:49:25;37.57;;;33.77;;
16593;SDS011;8410;52.532;13.336;2022-11-15T08:51:52;37.87;;;30.47;;
16593;SDS011;8410;52.532;13.336;2022-11-15T08:54:21;35.07;;;31.30;;
16593;SDS011;8410;52.532;13.336;2022-11-15T08:56:48;40.63;;;33.40;;
16593;SDS011;8410;52.532;13.336;2022-11-15T08:59:16;36.77;;;32.53;;
16593;SDS011;8410;52.532;13.336;2022-11-15T09:01:43;38.33;;;32.40;;
16593;SDS011;8410;52.532;13.336;2022-11-15T09:04:11;35.73;;;29.87;;
16593;SDS011;8410;52.532;13.336;2022-11-15T09:06:38;14.33;;;12.63;;
16593;SDS011;8410;52.532;13.336;2022-11-15T09:09:08;32.57;;;29.00;;
16593;SDS011;8410;52.532;13.336;2022-11-15T09:11:39;21.63;;;19.33;;
16593;SDS011;8410;52.532;13.336;2022-11-15T09:14:07;28.27;;;25.17;;
16593;SDS011;8410;52.532;13.336;2022-11-15T09:16:34;22.77;;;20.37;;
16593;SDS011;8410;52.532;13.336;2022-11-15T09:19:02;21.73;;;16.47;;
16593;SDS011;8410;52.532;13.336;2022-11-15T09:21:36;22.60;;;20.47;;
16593;SDS011;8410;52.532;13.336;2022-11-15T09:24:04;25.07;;;22.53;;
16593;SDS011;8410;52.532;13.336;2022-11-15T09:26:32;20.60;;;18.50;;
16593;SDS011;8410;52.532;13.336;2022-11-15T09:29:01;22.93;;;20.60;;
16593;SDS011;8410;52.532;13.336;2022-11-15T09:31:28;22.00;;;19.93;;
16593;SDS011;8410;52.532;13.336;2022-11-15T09:33:56;26.57;;;21.70;;
16593;SDS011;8410;52.532;13.336;2022-11-15T09:36:23;23.20;;;20.70;;
16593;SDS011;8410;52.532;13.336;2022-11-15T09:38:51;20.73;;;18.73;;
16593;SDS011;8410;52.532;13.336;2022-11-15T09:41:38;22.33;;;20.03;;
16593;SDS011;8410;52.532;13.336;2022-11-15T09:44:33;23.60;;;21.13;;
16593;SDS011;8410;52.532;13.336;2022-11-15T09:47:17;21.07;;;19.07;;
16593;SDS011;8410;52.532;13.336;2022-11-15T09:49:59;20.10;;;18.10;;
16593;SDS011;8410;52.532;13.336;2022-11-15T09:52:29;25.30;;;22.73;;
16593;SDS011;8410;52.532;13.336;2022-11-15T09:54:56;24.97;;;22.43;;
16593;SDS011;8410;52.532;13.336;2022-11-15T09:57:24;29.83;;;26.73;;
16593;SDS011;8410;52.532;13.336;2022-11-15T10:00:02;28.80;;;25.80;;
16593;SDS011;8410;52.532;13.336;2022-11-15T10:02:58;28.67;;;25.77;;
16593;SDS011;8410;52.532;13.336;2022-11-15T10:05:36;29.27;;;26.13;;
16593;SDS011;8410;52.532;13.336;2022-11-15T10:08:06;28.03;;;25.13;;
16593;SDS011;8410;52.532;13.336;2022-11-15T10:10:49;27.90;;;25.00;;
16593;SDS011;8410;52.532;13.336;2022-11-15T10:13:40;25.23;;;22.60;;
16593;SDS011;8410;52.532;13.336;2022-11-15T10:19:16;27.87;;;24.87;;
16593;SDS011;8410;52.532;13.336;2022-11-15T10:21:54;25.63;;;22.43;;
16593;SDS011;8410;52.532;13.336;2022-11-15T10:24:28;26.10;;;23.50;;
16593;SDS011;8410;52.532;13.336;2022-11-15T10:27:00;26.23;;;23.63;;
16593;SDS011;8410;52.532;13.336;2022-11-15T10:29:28;27.47;;;23.07;;
16593;SDS011;8410;52.532;13.336;2022-11-15T10:31:55;25.33;;;22.67;;
16593;SDS011;8410;52.532;13.336;2022-11-15T10:34:24;24.57;;;22.10;;
16593;SDS011;8410;52.532;13.336;2022-11-15T10:36:56;24.60;;;22.03;;
16593;SDS011;8410;52.532;13.336;2022-11-15T10:39:26;24.83;;;22.27;;
16593;SDS011;8410;52.532;13.336;2022-11-15T10:41:53;24.13;;;21.10;;
16593;SDS011;8410;52.532;13.336;2022-11-15T10:44:25;24.07;;;21.60;;
16593;SDS011;8410;52.532;13.336;2022-11-15T10:50:11;24.03;;;20.00;;
16593;SDS011;8410;52.532;13.336;2022-11-15T10:52:53;23.60;;;21.20;;
16593;SDS011;8410;52.532;13.336;2022-11-15T10:55:23;22.90;;;20.50;;
16593;SDS011;8410;52.532;13.336;2022-11-15T10:57:53;22.73;;;20.40;;
16593;SDS011;8410;52.532;13.336;2022-11-15T11:00:27;22.47;;;20.10;;
16593;SDS011;8410;52.532;13.336;2022-11-15T11:03:00;25.00;;;22.47;;
16593;SDS011;8410;52.532;13.336;2022-11-15T11:05:31;22.10;;;19.80;;
16593;SDS011;8410;52.532;13.336;2022-11-15T11:08:19;22.77;;;20.33;;
16593;SDS011;8410;52.532;13.336;2022-11-15T11:10:51;20.30;;;18.20;;
16593;SDS011;8410;52.532;13.336;2022-11-15T11:13:27;22.23;;;19.60;;
16593;SDS011;8410;52.532;13.336;2022-11-15T11:15:59;23.00;;;20.60;;
16593;SDS011;8410;52.532;13.336;2022-11-15T11:18:38;22.50;;;19.77;;
16593;SDS011;8410;52.532;13.336;2022-11-15T11:21:18;20.93;;;18.73;;
16593;SDS011;8410;52.532;13.336;2022-11-15T11:24:02;20.63;;;18.43;;
16593;SDS011;8410;52.532;13.336;2022-11-15T11:26:38;21.97;;;19.83;;
16593;SDS011;8410;52.532;13.336;2022-11-15T11:29:14;21.53;;;19.13;;
16593;SDS011;8410;52.532;13.336;2022-11-15T11:31:55;20.90;;;18.90;;
16593;SDS011;8410;52.532;13.336;2022-11-15T11:34:33;21.60;;;19.40;;
16593;SDS011;8410;52.532;13.336;2022-11-15T11:37:12;22.13;;;19.93;;
16593;SDS011;8410;52.532;13.336;2022-11-15T11:39:46;22.90;;;20.37;;
16593;SDS011;8410;52.532;13.336;2022-11-15T11:42:26;21.83;;;19.67;;
16593;SDS011;8410;52.532;13.336;2022-11-15T11:45:00;21.87;;;19.57;;
16593;SDS011;8410;52.532;13.336;2022-11-15T11:47:39;21.63;;;19.43;;
16593;SDS011;8410;52.532;13.336;2022-11-15T11:50:10;21.77;;;19.57;;
16593;SDS011;8410;52.532;13.336;2022-11-15T11:52:42;21.33;;;19.13;;
16593;SDS011;8410;52.532;13.336;2022-11-15T11:55:19;29.23;;;26.17;;
16593;SDS011;8410;52.532;13.336;2022-11-15T11:57:50;24.23;;;21.67;;
16593;SDS011;8410;52.532;13.336;2022-11-15T12:00:26;21.83;;;19.53;;
16593;SDS011;8410;52.532;13.336;2022-11-15T12:03:00;19.83;;;17.80;;
16593;SDS011;8410;52.532;13.336;2022-11-15T12:05:34;21.10;;;19.00;;
16593;SDS011;8410;52.532;13.336;2022-11-15T12:08:09;20.87;;;18.57;;
16593;SDS011;8410;52.532;13.336;2022-11-15T12:10:50;20.20;;;18.20;;
16593;SDS011;8410;52.532;13.336;2022-11-15T12:13:25;21.43;;;19.17;;
16593;SDS011;8410;52.532;13.336;2022-11-15T12:16:00;21.03;;;18.77;;
16593;SDS011;8410;52.532;13.336;2022-11-15T12:18:35;20.50;;;18.33;;
16593;SDS011;8410;52.532;13.336;2022-11-15T12:21:14;21.10;;;19.00;;
16593;SDS011;8410;52.532;13.336;2022-11-15T12:23:56;20.20;;;18.10;;
16593;SDS011;8410;52.532;13.336;2022-11-15T12:26:31;19.63;;;17.57;;
16593;SDS011;8410;52.532;13.336;2022-11-15T12:29:04;21.33;;;19.33;;
16593;SDS011;8410;52.532;13.336;2022-11-15T12:31:40;21.83;;;19.63;;
16593;SDS011;8410;52.532;13.336;2022-11-15T12:34:16;19.57;;;17.50;;
16593;SDS011;8410;52.532;13.336;2022-11-15T12:37:02;21.77;;;19.60;;
16593;SDS011;8410;52.532;13.336;2022-11-15T12:40:30;21.37;;;19.13;;
16593;SDS011;8410;52.532;13.336;2022-11-15T12:43:03;21.33;;;19.10;;
16593;SDS011;8410;52.532;13.336;2022-11-15T12:45:46;21.50;;;19.30;;
16593;SDS011;8410;52.532;13.336;2022-11-15T12:54:50;22.23;;;19.57;;
16593;SDS011;8410;52.532;13.336;2022-11-15T13:05:55;20.83;;;18.77;;
16593;SDS011;8410;52.532;13.336;2022-11-15T13:08:38;21.87;;;17.73;;
16593;SDS011;8410;52.532;13.336;2022-11-15T13:20:22;19.43;;;17.43;;
16593;SDS011;8410;52.532;13.336;2022-11-15T13:22:58;20.27;;;18.37;;
16593;SDS011;8410;52.532;13.336;2022-11-15T13:25:39;19.73;;;17.27;;
16593;SDS011;8410;52.532;13.336;2022-11-15T13:28:20;24.60;;;19.10;;
16593;SDS011;8410;52.532;13.336;2022-11-15T13:30:53;21.40;;;19.20;;
16593;SDS011;8410;52.532;13.336;2022-11-15T13:33:23;21.37;;;19.10;;
16593;SDS011;8410;52.532;13.336;2022-11-15T13:36:01;21.60;;;19.27;;
16593;SDS011;8410;52.532;13.336;2022-11-15T13:38:31;23.50;;;20.03;;
16593;SDS011;8410;52.532;13.336;2022-11-15T13:41:10;23.53;;;20.33;;
16593;SDS011;8410;52.532;13.336;2022-11-15T13:43:41;27.03;;;21.07;;
16593;SDS011;8410;52.532;13.336;2022-11-15T13:46:13;22.10;;;18.83;;
16593;SDS011;8410;52.532;13.336;2022-11-15T13:48:44;21.93;;;18.83;;
16593;SDS011;8410;52.532;13.336;2022-11-15T13:51:15;21.83;;;19.57;;
16593;SDS011;8410;52.532;13.336;2022-11-15T13:53:48;27.53;;;22.37;;
16593;SDS011;8410;52.532;13.336;2022-11-15T13:56:19;22.73;;;20.40;;
16593;SDS011;8410;52.532;13.336;2022-11-15T13:58:48;23.30;;;19.53;;
16593;SDS011;8410;52.532;13.336;2022-11-15T14:01:18;21.93;;;19.50;;
16593;SDS011;8410;52.532;13.336;2022-11-15T14:03:49;22.27;;;19.70;;
16593;SDS011;8410;52.532;13.336;2022-11-15T14:06:19;22.93;;;20.43;;
16593;SDS011;8410;52.532;13.336;2022-11-15T14:08:59;24.07;;;21.60;;
16593;SDS011;8410;52.532;13.336;2022-11-15T14:11:29;22.33;;;19.87;;
16593;SDS011;8410;52.532;13.336;2022-11-15T14:14:11;21.37;;;19.10;;
16593;SDS011;8410;52.532;13.336;2022-11-15T14:16:43;21.00;;;18.50;;
16593;SDS011;8410;52.532;13.336;2022-11-15T14:19:13;28.07;;;21.00;;
16593;SDS011;8410;52.532;13.336;2022-11-15T14:22:07;25.00;;;19.70;;
16593;SDS011;8410;52.532;13.336;2022-11-15T14:24:36;23.30;;;20.20;;
16593;SDS011;8410;52.532;13.336;2022-11-15T14:27:17;24.77;;;20.60;;
16593;SDS011;8410;52.532;13.336;2022-11-15T14:29:50;28.63;;;21.13;;
16593;SDS011;8410;52.532;13.336;2022-11-15T14:32:20;24.70;;;19.37;;
16593;SDS011;8410;52.532;13.336;2022-11-15T14:34:49;26.27;;;19.10;;
16593;SDS011;8410;52.532;13.336;2022-11-15T14:37:22;22.33;;;19.10;;
16593;SDS011;8410;52.532;13.336;2022-11-15T14:39:52;20.97;;;18.80;;
16593;SDS011;8410;52.532;13.336;2022-11-15T14:42:20;23.93;;;19.63;;
16593;SDS011;8410;52.532;13.336;2022-11-15T14:44:49;19.53;;;17.20;;
16593;SDS011;8410;52.532;13.336;2022-11-15T14:47:17;23.23;;;19.23;;
16593;SDS011;8410;52.532;13.336;2022-11-15T14:49:46;21.07;;;18.80;;
16593;SDS011;8410;52.532;13.336;2022-11-15T14:52:23;19.70;;;17.37;;
16593;SDS011;8410;52.532;13.336;2022-11-15T14:54:57;21.33;;;17.47;;
16593;SDS011;8410;52.532;13.336;2022-11-15T14:57:25;23.90;;;18.47;;
16593;SDS011;8410;52.532;13.336;2022-11-15T14:59:53;21.30;;;19.07;;
16593;SDS011;8410;52.532;13.336;2022-11-15T15:02:21;23.67;;;19.20;;
16593;SDS011;8410;52.532;13.336;2022-11-15T15:04:52;22.60;;;18.73;;
16593;SDS011;8410;52.532;13.336;2022-11-15T15:07:20;22.30;;;20.00;;
16593;SDS011;8410;52.532;13.336;2022-11-15T15:09:47;25.60;;;20.53;;
16593;SDS011;8410;52.532;13.336;2022-11-15T15:12:16;20.33;;;17.63;;
16593;SDS011;8410;52.532;13.336;2022-11-15T15:14:45;23.73;;;19.87;;
16593;SDS011;8410;52.532;13.336;2022-11-15T15:17:14;23.47;;;19.80;;
16593;SDS011;8410;52.532;13.336;2022-11-15T15:19:42;23.63;;;21.23;;